sensor_id;sensor_type;location;lat;lon;timestamp;P1;durP1;ratioP1;P2;durP2;ratioP2
75716;SDS011;64333;50.138;14.332;2022-12-11T00:01:44;27.65;;;10.45;;
75716;SDS011;64333;50.138;14.332;2022-12-11T00:04:10;25.13;;;11.00;;
75716;SDS011;64333;50.138;14.332;2022-12-11T00:06:35;25.55;;;10.98;;
75716;SDS011;64333;50.138;14.332;2022-12-11T00:09:01;26.48;;;11.93;;
75716;SDS011;64333;50.138;14.332;2022-12-11T00:11:26;24.77;;;10.02;;
75716;SDS011;64333;50.138;14.332;2022-12-11T00:13:51;26.13;;;10.95;;
75716;SDS011;64333;50.138;14.332;2022-12-11T00:16:17;27.05;;;11.45;;
75716;SDS011;64333;50.138;14.332;2022-12-11T00:18:42;23.20;;;10.73;;
75716;SDS011;64333;50.138;14.332;2022-12-11T00:21:10;26.45;;;11.88;;
75716;SDS011;64333;50.138;14.332;2022-12-11T00:23:37;28.10;;;11.00;;
75716;SDS011;64333;50.138;14.332;2022-12-11T00:26:11;26.20;;;11.18;;
75716;SDS011;64333;50.138;14.332;2022-12-11T00:28:38;23.63;;;11.57;;
75716;SDS011;64333;50.138;14.332;2022-12-11T00:31:04;30.02;;;11.95;;
75716;SDS011;64333;50.138;14.332;2022-12-11T00:33:30;25.23;;;11.07;;
75716;SDS011;64333;50.138;14.332;2022-12-11T00:35:56;29.23;;;11.98;;
75716;SDS011;64333;50.138;14.332;2022-12-11T00:38:21;25.60;;;11.30;;
75716;SDS011;64333;50.138;14.332;2022-12-11T00:40:48;27.75;;;11.55;;
75716;SDS011;64333;50.138;14.332;2022-12-11T00:43:14;23.27;;;10.43;;
75716;SDS011;64333;50.138;14.332;2022-12-11T00:45:43;24.63;;;10.88;;
75716;SDS011;64333;50.138;14.332;2022-12-11T00:48:11;27.45;;;11.27;;
75716;SDS011;64333;50.138;14.332;2022-12-11T00:50:37;25.50;;;10.50;;
75716;SDS011;64333;50.138;14.332;2022-12-11T00:53:04;24.30;;;10.30;;
75716;SDS011;64333;50.138;14.332;2022-12-11T00:55:30;25.98;;;11.30;;
75716;SDS011;64333;50.138;14.332;2022-12-11T00:58:00;27.92;;;10.40;;
75716;SDS011;64333;50.138;14.332;2022-12-11T01:00:25;23.63;;;11.40;;
75716;SDS011;64333;50.138;14.332;2022-12-11T01:02:51;27.30;;;9.90;;
75716;SDS011;64333;50.138;14.332;2022-12-11T01:05:16;26.27;;;11.10;;
75716;SDS011;64333;50.138;14.332;2022-12-11T01:07:42;31.25;;;11.82;;
75716;SDS011;64333;50.138;14.332;2022-12-11T01:10:09;23.63;;;10.32;;
75716;SDS011;64333;50.138;14.332;2022-12-11T01:12:48;33.30;;;12.32;;
75716;SDS011;64333;50.138;14.332;2022-12-11T01:15:25;27.85;;;12.05;;
75716;SDS011;64333;50.138;14.332;2022-12-11T01:17:52;26.02;;;11.38;;
75716;SDS011;64333;50.138;14.332;2022-12-11T01:20:18;29.70;;;12.18;;
75716;SDS011;64333;50.138;14.332;2022-12-11T01:22:45;28.02;;;11.73;;
75716;SDS011;64333;50.138;14.332;2022-12-11T01:25:11;30.73;;;11.60;;
75716;SDS011;64333;50.138;14.332;2022-12-11T01:27:37;30.83;;;12.40;;
75716;SDS011;64333;50.138;14.332;2022-12-11T01:30:04;26.77;;;11.65;;
75716;SDS011;64333;50.138;14.332;2022-12-11T01:32:31;28.77;;;12.55;;
75716;SDS011;64333;50.138;14.332;2022-12-11T01:34:56;32.13;;;13.23;;
75716;SDS011;64333;50.138;14.332;2022-12-11T01:37:22;29.75;;;11.95;;
75716;SDS011;64333;50.138;14.332;2022-12-11T01:39:47;25.92;;;13.32;;
75716;SDS011;64333;50.138;14.332;2022-12-11T01:42:15;25.38;;;11.10;;
75716;SDS011;64333;50.138;14.332;2022-12-11T01:47:07;28.40;;;10.90;;
75716;SDS011;64333;50.138;14.332;2022-12-11T01:49:33;25.20;;;10.98;;
75716;SDS011;64333;50.138;14.332;2022-12-11T01:52:00;28.17;;;11.93;;
75716;SDS011;64333;50.138;14.332;2022-12-11T01:54:27;27.30;;;10.75;;
75716;SDS011;64333;50.138;14.332;2022-12-11T01:56:54;26.40;;;12.00;;
75716;SDS011;64333;50.138;14.332;2022-12-11T01:59:26;26.38;;;11.63;;
75716;SDS011;64333;50.138;14.332;2022-12-11T02:02:05;25.35;;;11.35;;
75716;SDS011;64333;50.138;14.332;2022-12-11T02:04:34;27.23;;;12.40;;
75716;SDS011;64333;50.138;14.332;2022-12-11T02:07:01;25.55;;;10.30;;
75716;SDS011;64333;50.138;14.332;2022-12-11T02:09:28;24.17;;;10.35;;
75716;SDS011;64333;50.138;14.332;2022-12-11T02:15:06;31.25;;;12.18;;
75716;SDS011;64333;50.138;14.332;2022-12-11T02:20:06;21.35;;;8.60;;
75716;SDS011;64333;50.138;14.332;2022-12-11T02:25:29;17.67;;;7.82;;
75716;SDS011;64333;50.138;14.332;2022-12-11T02:28:11;21.63;;;8.20;;
75716;SDS011;64333;50.138;14.332;2022-12-11T02:30:39;18.92;;;7.80;;
75716;SDS011;64333;50.138;14.332;2022-12-11T02:33:07;18.65;;;9.07;;
75716;SDS011;64333;50.138;14.332;2022-12-11T02:35:37;18.95;;;8.68;;
75716;SDS011;64333;50.138;14.332;2022-12-11T02:38:07;18.98;;;9.43;;
75716;SDS011;64333;50.138;14.332;2022-12-11T02:40:39;19.65;;;8.35;;
75716;SDS011;64333;50.138;14.332;2022-12-11T02:43:07;21.65;;;9.10;;
75716;SDS011;64333;50.138;14.332;2022-12-11T02:45:36;18.08;;;8.32;;
75716;SDS011;64333;50.138;14.332;2022-12-11T02:48:04;19.17;;;8.63;;
75716;SDS011;64333;50.138;14.332;2022-12-11T02:50:33;18.08;;;8.77;;
75716;SDS011;64333;50.138;14.332;2022-12-11T02:53:02;19.33;;;8.07;;
75716;SDS011;64333;50.138;14.332;2022-12-11T02:55:29;23.05;;;10.50;;
75716;SDS011;64333;50.138;14.332;2022-12-11T03:00:30;23.17;;;10.18;;
75716;SDS011;64333;50.138;14.332;2022-12-11T03:02:56;23.77;;;10.23;;
75716;SDS011;64333;50.138;14.332;2022-12-11T03:05:22;21.85;;;10.02;;
75716;SDS011;64333;50.138;14.332;2022-12-11T03:07:48;23.00;;;10.52;;
75716;SDS011;64333;50.138;14.332;2022-12-11T03:10:14;25.70;;;11.00;;
75716;SDS011;64333;50.138;14.332;2022-12-11T03:12:43;24.65;;;10.65;;
75716;SDS011;64333;50.138;14.332;2022-12-11T03:15:13;25.33;;;10.13;;
75716;SDS011;64333;50.138;14.332;2022-12-11T03:20:46;20.55;;;8.13;;
75716;SDS011;64333;50.138;14.332;2022-12-11T03:23:31;22.65;;;10.43;;
75716;SDS011;64333;50.138;14.332;2022-12-11T03:26:02;24.42;;;10.25;;
75716;SDS011;64333;50.138;14.332;2022-12-11T03:31:19;20.63;;;10.18;;
75716;SDS011;64333;50.138;14.332;2022-12-11T03:33:50;23.50;;;9.65;;
75716;SDS011;64333;50.138;14.332;2022-12-11T03:36:24;21.38;;;9.93;;
75716;SDS011;64333;50.138;14.332;2022-12-11T03:38:55;21.42;;;8.85;;
75716;SDS011;64333;50.138;14.332;2022-12-11T03:41:25;24.08;;;10.77;;
75716;SDS011;64333;50.138;14.332;2022-12-11T03:43:53;20.63;;;9.30;;
75716;SDS011;64333;50.138;14.332;2022-12-11T03:46:21;18.20;;;8.93;;
75716;SDS011;64333;50.138;14.332;2022-12-11T03:48:51;22.33;;;9.77;;
75716;SDS011;64333;50.138;14.332;2022-12-11T03:51:19;20.58;;;9.70;;
75716;SDS011;64333;50.138;14.332;2022-12-11T03:53:48;17.40;;;8.50;;
75716;SDS011;64333;50.138;14.332;2022-12-11T03:56:14;19.60;;;9.43;;
75716;SDS011;64333;50.138;14.332;2022-12-11T03:58:42;22.23;;;9.32;;
75716;SDS011;64333;50.138;14.332;2022-12-11T04:01:08;18.23;;;9.10;;
75716;SDS011;64333;50.138;14.332;2022-12-11T04:03:35;19.77;;;8.85;;
75716;SDS011;64333;50.138;14.332;2022-12-11T04:06:00;19.25;;;8.60;;
75716;SDS011;64333;50.138;14.332;2022-12-11T04:08:25;20.90;;;9.32;;
75716;SDS011;64333;50.138;14.332;2022-12-11T04:10:51;17.42;;;7.78;;
75716;SDS011;64333;50.138;14.332;2022-12-11T04:13:35;18.25;;;7.80;;
75716;SDS011;64333;50.138;14.332;2022-12-11T04:16:02;18.88;;;8.13;;
75716;SDS011;64333;50.138;14.332;2022-12-11T04:18:27;17.52;;;8.55;;
75716;SDS011;64333;50.138;14.332;2022-12-11T04:26:39;19.50;;;8.25;;
75716;SDS011;64333;50.138;14.332;2022-12-11T04:29:06;17.20;;;8.10;;
75716;SDS011;64333;50.138;14.332;2022-12-11T04:31:31;16.90;;;8.50;;
75716;SDS011;64333;50.138;14.332;2022-12-11T04:33:56;17.30;;;8.13;;
75716;SDS011;64333;50.138;14.332;2022-12-11T04:36:22;19.30;;;8.55;;
75716;SDS011;64333;50.138;14.332;2022-12-11T04:38:47;19.77;;;9.13;;
75716;SDS011;64333;50.138;14.332;2022-12-11T04:41:13;20.08;;;8.45;;
75716;SDS011;64333;50.138;14.332;2022-12-11T04:43:40;17.67;;;8.57;;
75716;SDS011;64333;50.138;14.332;2022-12-11T04:46:10;17.85;;;8.48;;
75716;SDS011;64333;50.138;14.332;2022-12-11T04:48:37;17.55;;;8.50;;
75716;SDS011;64333;50.138;14.332;2022-12-11T04:51:04;15.35;;;8.23;;
75716;SDS011;64333;50.138;14.332;2022-12-11T04:53:30;14.38;;;7.28;;
75716;SDS011;64333;50.138;14.332;2022-12-11T04:55:55;15.95;;;6.35;;
75716;SDS011;64333;50.138;14.332;2022-12-11T04:58:21;17.55;;;7.78;;
75716;SDS011;64333;50.138;14.332;2022-12-11T05:00:48;13.38;;;6.88;;
75716;SDS011;64333;50.138;14.332;2022-12-11T05:03:14;18.77;;;7.97;;
75716;SDS011;64333;50.138;14.332;2022-12-11T05:05:39;13.95;;;6.72;;
75716;SDS011;64333;50.138;14.332;2022-12-11T05:08:05;14.68;;;7.07;;
75716;SDS011;64333;50.138;14.332;2022-12-11T05:10:30;15.20;;;7.10;;
75716;SDS011;64333;50.138;14.332;2022-12-11T05:12:55;15.55;;;7.60;;
75716;SDS011;64333;50.138;14.332;2022-12-11T05:15:21;14.63;;;7.18;;
75716;SDS011;64333;50.138;14.332;2022-12-11T05:17:47;15.48;;;7.38;;
75716;SDS011;64333;50.138;14.332;2022-12-11T05:20:12;14.00;;;6.65;;
75716;SDS011;64333;50.138;14.332;2022-12-11T05:22:38;13.30;;;6.50;;
75716;SDS011;64333;50.138;14.332;2022-12-11T05:25:03;14.52;;;6.05;;
75716;SDS011;64333;50.138;14.332;2022-12-11T05:27:29;13.18;;;6.57;;
75716;SDS011;64333;50.138;14.332;2022-12-11T05:29:55;12.82;;;6.03;;
75716;SDS011;64333;50.138;14.332;2022-12-11T05:32:20;13.95;;;7.10;;
75716;SDS011;64333;50.138;14.332;2022-12-11T05:34:46;12.48;;;6.22;;
75716;SDS011;64333;50.138;14.332;2022-12-11T05:37:11;14.65;;;6.50;;
75716;SDS011;64333;50.138;14.332;2022-12-11T05:39:37;15.77;;;6.70;;
75716;SDS011;64333;50.138;14.332;2022-12-11T05:42:03;12.88;;;6.25;;
75716;SDS011;64333;50.138;14.332;2022-12-11T05:44:28;14.57;;;6.20;;
75716;SDS011;64333;50.138;14.332;2022-12-11T05:46:54;14.25;;;5.82;;
75716;SDS011;64333;50.138;14.332;2022-12-11T05:49:19;14.65;;;6.35;;
75716;SDS011;64333;50.138;14.332;2022-12-11T05:51:45;14.00;;;7.43;;
75716;SDS011;64333;50.138;14.332;2022-12-11T05:54:11;15.15;;;7.13;;
75716;SDS011;64333;50.138;14.332;2022-12-11T05:56:37;13.77;;;6.88;;
75716;SDS011;64333;50.138;14.332;2022-12-11T05:59:03;11.95;;;6.65;;
75716;SDS011;64333;50.138;14.332;2022-12-11T06:01:32;12.18;;;7.00;;
75716;SDS011;64333;50.138;14.332;2022-12-11T06:03:59;13.10;;;6.43;;
75716;SDS011;64333;50.138;14.332;2022-12-11T06:06:26;15.13;;;7.28;;
75716;SDS011;64333;50.138;14.332;2022-12-11T06:08:53;16.40;;;7.35;;
75716;SDS011;64333;50.138;14.332;2022-12-11T06:11:20;11.95;;;6.10;;
75716;SDS011;64333;50.138;14.332;2022-12-11T06:13:47;16.33;;;7.70;;
75716;SDS011;64333;50.138;14.332;2022-12-11T06:16:12;16.35;;;7.15;;
75716;SDS011;64333;50.138;14.332;2022-12-11T06:18:39;18.75;;;8.50;;
75716;SDS011;64333;50.138;14.332;2022-12-11T06:23:42;18.17;;;8.52;;
75716;SDS011;64333;50.138;14.332;2022-12-11T06:26:09;17.10;;;8.55;;
75716;SDS011;64333;50.138;14.332;2022-12-11T06:28:35;15.60;;;7.53;;
75716;SDS011;64333;50.138;14.332;2022-12-11T06:31:01;15.30;;;7.32;;
75716;SDS011;64333;50.138;14.332;2022-12-11T06:33:27;20.70;;;8.50;;
75716;SDS011;64333;50.138;14.332;2022-12-11T06:35:54;17.50;;;8.50;;
75716;SDS011;64333;50.138;14.332;2022-12-11T06:38:20;19.80;;;8.63;;
75716;SDS011;64333;50.138;14.332;2022-12-11T06:40:52;15.23;;;7.80;;
75716;SDS011;64333;50.138;14.332;2022-12-11T06:43:19;16.92;;;7.53;;
75716;SDS011;64333;50.138;14.332;2022-12-11T06:45:44;19.92;;;8.45;;
75716;SDS011;64333;50.138;14.332;2022-12-11T06:48:10;21.08;;;9.98;;
75716;SDS011;64333;50.138;14.332;2022-12-11T06:50:36;19.65;;;8.90;;
75716;SDS011;64333;50.138;14.332;2022-12-11T06:53:02;16.27;;;7.90;;
75716;SDS011;64333;50.138;14.332;2022-12-11T06:55:28;19.48;;;8.15;;
75716;SDS011;64333;50.138;14.332;2022-12-11T06:57:53;18.42;;;9.48;;
75716;SDS011;64333;50.138;14.332;2022-12-11T07:00:19;22.05;;;9.93;;
75716;SDS011;64333;50.138;14.332;2022-12-11T07:02:44;19.65;;;8.63;;
75716;SDS011;64333;50.138;14.332;2022-12-11T07:05:10;15.25;;;7.15;;
75716;SDS011;64333;50.138;14.332;2022-12-11T07:07:35;20.17;;;8.38;;
75716;SDS011;64333;50.138;14.332;2022-12-11T07:10:01;20.40;;;9.73;;
75716;SDS011;64333;50.138;14.332;2022-12-11T07:12:27;17.80;;;8.05;;
75716;SDS011;64333;50.138;14.332;2022-12-11T07:14:52;20.52;;;9.82;;
75716;SDS011;64333;50.138;14.332;2022-12-11T07:17:18;16.20;;;8.10;;
75716;SDS011;64333;50.138;14.332;2022-12-11T07:19:43;19.25;;;8.07;;
75716;SDS011;64333;50.138;14.332;2022-12-11T07:22:09;16.35;;;8.57;;
75716;SDS011;64333;50.138;14.332;2022-12-11T07:24:34;17.92;;;8.50;;
75716;SDS011;64333;50.138;14.332;2022-12-11T07:26:59;19.33;;;9.60;;
75716;SDS011;64333;50.138;14.332;2022-12-11T07:29:25;15.38;;;8.20;;
75716;SDS011;64333;50.138;14.332;2022-12-11T07:31:50;18.38;;;8.15;;
75716;SDS011;64333;50.138;14.332;2022-12-11T07:34:16;17.70;;;8.60;;
75716;SDS011;64333;50.138;14.332;2022-12-11T07:36:41;18.65;;;9.63;;
75716;SDS011;64333;50.138;14.332;2022-12-11T07:39:08;19.23;;;9.20;;
75716;SDS011;64333;50.138;14.332;2022-12-11T07:41:37;18.15;;;9.00;;
75716;SDS011;64333;50.138;14.332;2022-12-11T07:44:03;20.08;;;10.02;;
75716;SDS011;64333;50.138;14.332;2022-12-11T07:46:29;19.60;;;9.20;;
75716;SDS011;64333;50.138;14.332;2022-12-11T07:48:56;21.20;;;10.10;;
75716;SDS011;64333;50.138;14.332;2022-12-11T07:51:23;22.52;;;10.00;;
75716;SDS011;64333;50.138;14.332;2022-12-11T07:53:52;20.95;;;9.40;;
75716;SDS011;64333;50.138;14.332;2022-12-11T07:56:22;22.20;;;10.10;;
75716;SDS011;64333;50.138;14.332;2022-12-11T07:58:48;20.95;;;9.93;;
75716;SDS011;64333;50.138;14.332;2022-12-11T08:01:14;23.42;;;11.18;;
75716;SDS011;64333;50.138;14.332;2022-12-11T08:03:44;24.52;;;11.23;;
75716;SDS011;64333;50.138;14.332;2022-12-11T08:06:10;28.85;;;14.15;;
75716;SDS011;64333;50.138;14.332;2022-12-11T08:08:36;23.17;;;11.13;;
75716;SDS011;64333;50.138;14.332;2022-12-11T08:11:07;22.90;;;9.95;;
75716;SDS011;64333;50.138;14.332;2022-12-11T08:13:34;24.40;;;10.88;;
75716;SDS011;64333;50.138;14.332;2022-12-11T08:16:07;21.02;;;10.15;;
75716;SDS011;64333;50.138;14.332;2022-12-11T08:18:34;26.63;;;12.32;;
75716;SDS011;64333;50.138;14.332;2022-12-11T08:21:10;19.58;;;9.68;;
75716;SDS011;64333;50.138;14.332;2022-12-11T08:23:40;18.85;;;8.95;;
75716;SDS011;64333;50.138;14.332;2022-12-11T08:26:07;20.23;;;9.23;;
75716;SDS011;64333;50.138;14.332;2022-12-11T08:28:35;18.70;;;8.55;;
75716;SDS011;64333;50.138;14.332;2022-12-11T08:31:05;17.08;;;9.00;;
75716;SDS011;64333;50.138;14.332;2022-12-11T08:33:32;16.30;;;8.02;;
75716;SDS011;64333;50.138;14.332;2022-12-11T08:36:01;17.23;;;8.57;;
75716;SDS011;64333;50.138;14.332;2022-12-11T08:38:27;16.60;;;8.27;;
75716;SDS011;64333;50.138;14.332;2022-12-11T08:40:53;14.10;;;7.93;;
75716;SDS011;64333;50.138;14.332;2022-12-11T08:43:18;13.63;;;8.32;;
75716;SDS011;64333;50.138;14.332;2022-12-11T08:45:44;17.33;;;8.75;;
75716;SDS011;64333;50.138;14.332;2022-12-11T08:48:10;19.70;;;9.88;;
75716;SDS011;64333;50.138;14.332;2022-12-11T08:50:35;17.95;;;9.85;;
75716;SDS011;64333;50.138;14.332;2022-12-11T08:53:01;14.23;;;7.55;;
75716;SDS011;64333;50.138;14.332;2022-12-11T08:55:26;14.85;;;7.57;;
75716;SDS011;64333;50.138;14.332;2022-12-11T08:57:52;13.05;;;7.57;;
75716;SDS011;64333;50.138;14.332;2022-12-11T09:00:17;13.80;;;8.18;;
75716;SDS011;64333;50.138;14.332;2022-12-11T09:02:43;13.02;;;7.22;;
75716;SDS011;64333;50.138;14.332;2022-12-11T09:05:08;13.95;;;7.95;;
75716;SDS011;64333;50.138;14.332;2022-12-11T09:07:34;13.90;;;8.10;;
75716;SDS011;64333;50.138;14.332;2022-12-11T09:10:02;13.52;;;7.88;;
75716;SDS011;64333;50.138;14.332;2022-12-11T09:12:28;12.23;;;7.15;;
75716;SDS011;64333;50.138;14.332;2022-12-11T09:14:55;13.15;;;8.48;;
75716;SDS011;64333;50.138;14.332;2022-12-11T09:17:21;13.60;;;8.38;;
75716;SDS011;64333;50.138;14.332;2022-12-11T09:19:46;14.68;;;8.40;;
75716;SDS011;64333;50.138;14.332;2022-12-11T09:22:11;11.95;;;7.00;;
75716;SDS011;64333;50.138;14.332;2022-12-11T09:24:37;10.10;;;6.47;;
75716;SDS011;64333;50.138;14.332;2022-12-11T09:27:03;12.18;;;6.57;;
75716;SDS011;64333;50.138;14.332;2022-12-11T09:29:30;9.73;;;6.18;;
75716;SDS011;64333;50.138;14.332;2022-12-11T09:31:56;18.20;;;7.07;;
75716;SDS011;64333;50.138;14.332;2022-12-11T09:34:21;10.88;;;6.15;;
75716;SDS011;64333;50.138;14.332;2022-12-11T09:36:47;10.13;;;6.43;;
75716;SDS011;64333;50.138;14.332;2022-12-11T09:39:13;9.10;;;5.93;;
75716;SDS011;64333;50.138;14.332;2022-12-11T09:44:36;9.88;;;6.05;;
75716;SDS011;64333;50.138;14.332;2022-12-11T09:47:18;16.70;;;7.75;;
75716;SDS011;64333;50.138;14.332;2022-12-11T09:49:49;13.30;;;6.82;;
75716;SDS011;64333;50.138;14.332;2022-12-11T09:54:59;8.15;;;5.32;;
75716;SDS011;64333;50.138;14.332;2022-12-11T10:00:36;16.60;;;7.80;;
75716;SDS011;64333;50.138;14.332;2022-12-11T10:06:02;13.32;;;6.78;;
75716;SDS011;64333;50.138;14.332;2022-12-11T10:08:35;9.13;;;5.63;;
75716;SDS011;64333;50.138;14.332;2022-12-11T10:11:19;10.43;;;5.80;;
75716;SDS011;64333;50.138;14.332;2022-12-11T10:16:44;10.80;;;5.13;;
75716;SDS011;64333;50.138;14.332;2022-12-11T10:19:17;8.98;;;4.90;;
75716;SDS011;64333;50.138;14.332;2022-12-11T10:21:46;9.63;;;4.80;;
75716;SDS011;64333;50.138;14.332;2022-12-11T10:24:21;10.20;;;5.55;;
75716;SDS011;64333;50.138;14.332;2022-12-11T10:30:18;8.95;;;5.22;;
75716;SDS011;64333;50.138;14.332;2022-12-11T10:35:25;8.77;;;4.70;;
75716;SDS011;64333;50.138;14.332;2022-12-11T10:38:10;10.70;;;5.25;;
75716;SDS011;64333;50.138;14.332;2022-12-11T10:40:42;12.75;;;5.50;;
75716;SDS011;64333;50.138;14.332;2022-12-11T10:43:13;9.30;;;5.07;;
75716;SDS011;64333;50.138;14.332;2022-12-11T10:45:39;8.88;;;5.40;;
75716;SDS011;64333;50.138;14.332;2022-12-11T10:48:05;10.82;;;5.25;;
75716;SDS011;64333;50.138;14.332;2022-12-11T10:50:34;9.27;;;6.00;;
75716;SDS011;64333;50.138;14.332;2022-12-11T10:53:00;11.02;;;5.75;;
75716;SDS011;64333;50.138;14.332;2022-12-11T10:55:27;9.82;;;5.68;;
75716;SDS011;64333;50.138;14.332;2022-12-11T10:58:02;10.18;;;5.78;;
75716;SDS011;64333;50.138;14.332;2022-12-11T11:02:59;11.25;;;5.80;;
75716;SDS011;64333;50.138;14.332;2022-12-11T11:05:27;10.50;;;5.50;;
75716;SDS011;64333;50.138;14.332;2022-12-11T11:08:03;10.80;;;5.53;;
75716;SDS011;64333;50.138;14.332;2022-12-11T11:10:48;10.85;;;5.70;;
75716;SDS011;64333;50.138;14.332;2022-12-11T11:13:19;9.40;;;5.05;;
75716;SDS011;64333;50.138;14.332;2022-12-11T11:15:47;10.98;;;5.85;;
75716;SDS011;64333;50.138;14.332;2022-12-11T11:18:18;11.30;;;5.55;;
75716;SDS011;64333;50.138;14.332;2022-12-11T11:20:51;9.88;;;5.07;;
75716;SDS011;64333;50.138;14.332;2022-12-11T11:23:16;12.30;;;5.93;;
75716;SDS011;64333;50.138;14.332;2022-12-11T11:28:39;11.18;;;5.40;;
75716;SDS011;64333;50.138;14.332;2022-12-11T11:31:14;12.18;;;5.15;;
75716;SDS011;64333;50.138;14.332;2022-12-11T11:34:00;11.60;;;5.82;;
75716;SDS011;64333;50.138;14.332;2022-12-11T12:52:15;9.00;;;5.35;;
75716;SDS011;64333;50.138;14.332;2022-12-11T12:54:46;10.63;;;5.05;;
75716;SDS011;64333;50.138;14.332;2022-12-11T12:57:41;9.73;;;5.75;;
75716;SDS011;64333;50.138;14.332;2022-12-11T13:00:09;11.75;;;5.85;;
75716;SDS011;64333;50.138;14.332;2022-12-11T13:02:36;10.50;;;6.13;;
75716;SDS011;64333;50.138;14.332;2022-12-11T13:05:18;10.40;;;4.95;;
75716;SDS011;64333;50.138;14.332;2022-12-11T13:07:51;10.52;;;5.68;;
75716;SDS011;64333;50.138;14.332;2022-12-11T13:10:21;12.60;;;5.55;;
75716;SDS011;64333;50.138;14.332;2022-12-11T13:12:58;8.35;;;4.75;;
75716;SDS011;64333;50.138;14.332;2022-12-11T13:18:04;9.02;;;4.95;;
75716;SDS011;64333;50.138;14.332;2022-12-11T13:20:51;8.98;;;5.00;;
75716;SDS011;64333;50.138;14.332;2022-12-11T13:25:49;6.90;;;3.95;;
75716;SDS011;64333;50.138;14.332;2022-12-11T13:28:33;8.45;;;4.25;;
75716;SDS011;64333;50.138;14.332;2022-12-11T13:33:44;15.02;;;6.25;;
75716;SDS011;64333;50.138;14.332;2022-12-11T13:38:38;8.35;;;4.68;;
75716;SDS011;64333;50.138;14.332;2022-12-11T13:41:10;9.88;;;5.25;;
75716;SDS011;64333;50.138;14.332;2022-12-11T13:43:37;10.13;;;5.20;;
75716;SDS011;64333;50.138;14.332;2022-12-11T13:46:08;9.98;;;4.95;;
75716;SDS011;64333;50.138;14.332;2022-12-11T13:48:52;9.45;;;4.15;;
75716;SDS011;64333;50.138;14.332;2022-12-11T13:51:25;9.38;;;4.40;;
75716;SDS011;64333;50.138;14.332;2022-12-11T13:54:02;9.23;;;4.38;;
75716;SDS011;64333;50.138;14.332;2022-12-11T13:56:38;10.93;;;5.00;;
75716;SDS011;64333;50.138;14.332;2022-12-11T13:59:03;10.73;;;5.10;;
75716;SDS011;64333;50.138;14.332;2022-12-11T14:01:32;9.90;;;4.70;;
75716;SDS011;64333;50.138;14.332;2022-12-11T14:04:09;9.45;;;4.30;;
75716;SDS011;64333;50.138;14.332;2022-12-11T14:06:39;8.88;;;5.32;;
75716;SDS011;64333;50.138;14.332;2022-12-11T14:09:05;9.10;;;4.55;;
75716;SDS011;64333;50.138;14.332;2022-12-11T14:14:02;9.05;;;4.25;;
75716;SDS011;64333;50.138;14.332;2022-12-11T14:16:30;7.22;;;4.13;;
75716;SDS011;64333;50.138;14.332;2022-12-11T14:19:00;8.40;;;4.20;;
75716;SDS011;64333;50.138;14.332;2022-12-11T14:21:29;8.40;;;4.18;;
75716;SDS011;64333;50.138;14.332;2022-12-11T14:23:56;8.85;;;4.63;;
75716;SDS011;64333;50.138;14.332;2022-12-11T14:26:24;7.30;;;3.90;;
75716;SDS011;64333;50.138;14.332;2022-12-11T14:28:53;10.95;;;5.18;;
75716;SDS011;64333;50.138;14.332;2022-12-11T14:34:23;10.15;;;4.68;;
75716;SDS011;64333;50.138;14.332;2022-12-11T14:36:53;11.52;;;4.55;;
75716;SDS011;64333;50.138;14.332;2022-12-11T14:39:29;10.73;;;4.35;;
75716;SDS011;64333;50.138;14.332;2022-12-11T14:44:28;10.63;;;4.85;;
75716;SDS011;64333;50.138;14.332;2022-12-11T14:47:05;10.07;;;4.88;;
75716;SDS011;64333;50.138;14.332;2022-12-11T14:49:47;12.88;;;5.82;;
75716;SDS011;64333;50.138;14.332;2022-12-11T14:52:18;11.05;;;5.63;;
75716;SDS011;64333;50.138;14.332;2022-12-11T14:54:52;80.43;;;34.25;;
75716;SDS011;64333;50.138;14.332;2022-12-11T14:57:22;36.42;;;14.48;;
75716;SDS011;64333;50.138;14.332;2022-12-11T14:59:51;14.18;;;6.97;;
75716;SDS011;64333;50.138;14.332;2022-12-11T15:05:04;12.55;;;5.70;;
75716;SDS011;64333;50.138;14.332;2022-12-11T15:07:59;9.65;;;4.93;;
75716;SDS011;64333;50.138;14.332;2022-12-11T15:10:31;11.43;;;5.68;;
75716;SDS011;64333;50.138;14.332;2022-12-11T15:12:59;10.45;;;5.30;;
75716;SDS011;64333;50.138;14.332;2022-12-11T15:15:25;10.95;;;5.50;;
75716;SDS011;64333;50.138;14.332;2022-12-11T15:17:53;13.65;;;6.30;;
75716;SDS011;64333;50.138;14.332;2022-12-11T15:20:20;11.40;;;5.63;;
75716;SDS011;64333;50.138;14.332;2022-12-11T15:22:56;13.05;;;5.78;;
75716;SDS011;64333;50.138;14.332;2022-12-11T15:25:25;12.27;;;6.38;;
75716;SDS011;64333;50.138;14.332;2022-12-11T15:27:53;12.35;;;5.70;;
75716;SDS011;64333;50.138;14.332;2022-12-11T15:33:00;14.18;;;6.57;;
75716;SDS011;64333;50.138;14.332;2022-12-11T15:35:29;12.35;;;7.28;;
75716;SDS011;64333;50.138;14.332;2022-12-11T15:37:55;15.25;;;7.47;;
75716;SDS011;64333;50.138;14.332;2022-12-11T15:40:22;15.73;;;7.57;;
75716;SDS011;64333;50.138;14.332;2022-12-11T15:42:48;14.40;;;8.18;;
75716;SDS011;64333;50.138;14.332;2022-12-11T15:45:18;15.55;;;7.95;;
75716;SDS011;64333;50.138;14.332;2022-12-11T15:47:48;15.15;;;7.75;;
75716;SDS011;64333;50.138;14.332;2022-12-11T15:50:19;18.98;;;8.80;;
75716;SDS011;64333;50.138;14.332;2022-12-11T15:52:49;15.68;;;8.23;;
75716;SDS011;64333;50.138;14.332;2022-12-11T15:55:17;17.65;;;8.73;;
75716;SDS011;64333;50.138;14.332;2022-12-11T15:57:47;17.08;;;9.63;;
75716;SDS011;64333;50.138;14.332;2022-12-11T16:00:15;18.98;;;9.18;;
75716;SDS011;64333;50.138;14.332;2022-12-11T16:02:42;18.70;;;9.90;;
75716;SDS011;64333;50.138;14.332;2022-12-11T16:05:08;16.48;;;8.07;;
75716;SDS011;64333;50.138;14.332;2022-12-11T16:07:34;18.25;;;8.43;;
75716;SDS011;64333;50.138;14.332;2022-12-11T16:09:59;13.30;;;7.35;;
75716;SDS011;64333;50.138;14.332;2022-12-11T16:12:25;19.40;;;8.57;;
75716;SDS011;64333;50.138;14.332;2022-12-11T16:14:50;19.25;;;8.27;;
75716;SDS011;64333;50.138;14.332;2022-12-11T16:17:16;17.45;;;7.35;;
75716;SDS011;64333;50.138;14.332;2022-12-11T16:19:41;14.70;;;7.35;;
75716;SDS011;64333;50.138;14.332;2022-12-11T16:22:08;18.48;;;8.05;;
75716;SDS011;64333;50.138;14.332;2022-12-11T16:24:35;18.27;;;8.82;;
75716;SDS011;64333;50.138;14.332;2022-12-11T16:27:01;18.15;;;8.32;;
75716;SDS011;64333;50.138;14.332;2022-12-11T16:29:27;16.50;;;8.23;;
75716;SDS011;64333;50.138;14.332;2022-12-11T16:31:53;14.80;;;7.18;;
75716;SDS011;64333;50.138;14.332;2022-12-11T16:34:23;12.52;;;6.38;;
75716;SDS011;64333;50.138;14.332;2022-12-11T16:36:50;17.83;;;8.13;;
75716;SDS011;64333;50.138;14.332;2022-12-11T16:39:15;17.48;;;7.75;;
75716;SDS011;64333;50.138;14.332;2022-12-11T16:41:41;15.05;;;7.47;;
75716;SDS011;64333;50.138;14.332;2022-12-11T16:44:06;15.68;;;7.38;;
75716;SDS011;64333;50.138;14.332;2022-12-11T16:46:32;15.82;;;7.22;;
75716;SDS011;64333;50.138;14.332;2022-12-11T16:48:58;14.55;;;6.75;;
75716;SDS011;64333;50.138;14.332;2022-12-11T16:51:23;16.83;;;7.90;;
75716;SDS011;64333;50.138;14.332;2022-12-11T16:53:48;15.50;;;7.40;;
75716;SDS011;64333;50.138;14.332;2022-12-11T16:56:14;14.18;;;7.13;;
75716;SDS011;64333;50.138;14.332;2022-12-11T16:58:39;13.32;;;6.78;;
75716;SDS011;64333;50.138;14.332;2022-12-11T17:01:08;12.43;;;5.53;;